Time;durP1;ratioP1;P1;durP2;ratioP2;P2;SDS_P1;SDS_P2;PMS_P1;PMS_P2;Temp;Humidity;BMP_temperature;BMP_pressure;BME280_temperature;BME280_humidity;BME280_pressure;Samples;Min_cycle;Max_cycle;Signal;HPM_P1;HPM_P2
2023/05/27 04:30:48;;;;;;;14.60;5.28;;;15.40;61.60;;;;;;5772232;23;20220;-78
2023/05/27 04:33:15;;;;;;;13.90;4.35;;;15.40;61.50;;;;;;5008473;28;20037;-77
2023/05/27 04:35:43;;;;;;;18.08;5.47;;;15.40;61.40;;;;;;5024067;28;20044;-78
2023/05/27 04:38:15;;;;;;;18.30;5.43;;;15.40;61.40;;;;;;5033235;28;20028;-78
2023/05/27 04:40:52;;;;;;;12.73;5.22;;;15.40;61.30;;;;;;5033208;28;20025;-78
2023/05/27 04:43:18;;;;;;;12.93;4.57;;;15.50;60.80;;;;;;4993934;28;20085;-78
2023/05/27 04:45:45;;;;;;;14.07;4.40;;;15.40;61.30;;;;;;5017520;28;20033;-78
2023/05/27 04:48:11;;;;;;;15.35;4.97;;;15.50;60.90;;;;;;5032949;28;20028;-77
2023/05/27 04:50:37;;;;;;;14.88;5.25;;;15.50;60.70;;;;;;5023625;28;20030;-78
2023/05/27 04:53:03;;;;;;;12.95;4.78;;;15.50;60.30;;;;;;4995299;28;20034;-78
2023/05/27 04:55:29;;;;;;;11.75;5.00;;;15.50;60.80;;;;;;5012688;28;20536;-77
2023/05/27 04:57:56;;;;;;;16.70;4.75;;;15.50;61.10;;;;;;5012829;28;20022;-77
2023/05/27 05:03:07;;;;;;;15.60;4.93;;;15.50;60.10;;;;;;5016834;28;20151;-77
2023/05/27 05:05:32;;;;;;;11.88;4.25;;;15.50;60.30;;;;;;5016533;28;20038;-77
2023/05/27 05:07:58;;;;;;;12.18;4.65;;;15.50;60.30;;;;;;5028022;28;20029;-77
2023/05/27 05:10:24;;;;;;;19.80;5.25;;;15.40;61.00;;;;;;5000374;28;20044;-77
2023/05/27 05:12:50;;;;;;;17.27;5.05;;;15.40;61.70;;;;;;5036176;28;20017;-77
2023/05/27 05:15:16;;;;;;;8.57;4.03;;;15.40;61.50;;;;;;5017699;28;20045;-77
2023/05/27 05:17:42;;;;;;;10.13;4.18;;;15.40;61.40;;;;;;5004423;28;20489;-77
2023/05/27 05:20:08;;;;;;;10.57;4.57;;;15.50;61.30;;;;;;5024523;28;20037;-78
2023/05/27 05:22:34;;;;;;;9.00;3.85;;;15.50;61.90;;;;;;5034752;28;20029;-77
2023/05/27 05:25:00;;;;;;;11.10;5.05;;;15.50;61.70;;;;;;5019110;28;20037;-77
2023/05/27 05:27:27;;;;;;;11.52;4.78;;;15.50;61.50;;;;;;5016401;28;20030;-77
2023/05/27 05:29:53;;;;;;;11.00;4.20;;;15.50;61.10;;;;;;5016127;28;20034;-77
2023/05/27 05:32:20;;;;;;;15.88;4.32;;;15.50;60.70;;;;;;5015570;28;20053;-77
2023/05/27 05:34:45;;;;;;;20.38;5.15;;;15.60;61.40;;;;;;5016175;28;20040;-77
2023/05/27 05:37:11;;;;;;;13.13;5.03;;;15.60;61.10;;;;;;5027583;28;20100;-77
2023/05/27 05:39:37;;;;;;;15.07;5.72;;;15.60;60.90;;;;;;5033425;28;20025;-77
2023/05/27 05:42:03;;;;;;;18.30;5.57;;;15.60;60.80;;;;;;5016045;28;20037;-78
2023/05/27 05:44:29;;;;;;;11.32;4.18;;;15.60;60.90;;;;;;5014992;28;20088;-77
2023/05/27 05:46:55;;;;;;;12.85;5.13;;;15.70;60.70;;;;;;5013167;28;20066;-77
2023/05/27 05:49:20;;;;;;;19.02;5.28;;;15.60;61.80;;;;;;5016014;28;20085;-77
2023/05/27 05:51:46;;;;;;;13.60;4.35;;;15.70;61.20;;;;;;5016130;28;20030;-77
2023/05/27 05:54:12;;;;;;;14.90;4.90;;;15.70;61.90;;;;;;5002662;28;20030;-77
2023/05/27 05:56:37;;;;;;;17.08;5.20;;;15.70;61.20;;;;;;4996457;28;20039;-77
2023/05/27 05:59:03;;;;;;;12.50;4.60;;;15.70;61.00;;;;;;4978762;28;20034;-78
2023/05/27 06:01:28;;;;;;;11.25;4.28;;;15.70;62.00;;;;;;4998070;28;20023;-77
2023/05/27 06:03:55;;;;;;;17.13;4.78;;;15.70;62.20;;;;;;5015696;28;20411;-78
2023/05/27 06:06:21;;;;;;;12.75;4.65;;;15.80;61.50;;;;;;5015594;28;20100;-82
2023/05/27 06:08:47;;;;;;;13.57;4.65;;;15.80;61.80;;;;;;5016278;28;20038;-83
2023/05/27 06:11:13;;;;;;;18.45;5.90;;;15.80;61.50;;;;;;5021390;28;20539;-82
2023/05/27 06:13:44;;;;;;;14.95;5.22;;;15.80;61.50;;;;;;5020182;28;20034;-80
2023/05/27 06:16:16;;;;;;;15.27;5.53;;;16.00;60.90;;;;;;5023064;28;20043;-79
2023/05/27 06:18:45;;;;;;;19.02;4.55;;;16.00;60.70;;;;;;5024902;28;20065;-80
2023/05/27 06:21:12;;;;;;;9.55;3.72;;;16.00;60.80;;;;;;5028660;28;20013;-78
2023/05/27 06:23:37;;;;;;;10.15;4.03;;;16.10;60.40;;;;;;5026910;28;20065;-80
2023/05/27 06:26:03;;;;;;;12.00;4.05;;;16.20;60.80;;;;;;5027677;28;20067;-78
2023/05/27 06:28:29;;;;;;;12.18;4.25;;;16.20;60.30;;;;;;5028239;28;20081;-81
2023/05/27 06:30:55;;;;;;;14.15;4.55;;;16.30;60.20;;;;;;5026250;28;20049;-87
2023/05/27 06:33:20;;;;;;;21.67;5.10;;;16.30;60.30;;;;;;5024128;28;20017;-79
2023/05/27 06:35:46;;;;;;;11.00;4.03;;;16.40;59.90;;;;;;5018567;28;20034;-76
2023/05/27 06:38:12;;;;;;;14.77;5.13;;;16.40;60.40;;;;;;5018968;28;20026;-82
2023/05/27 06:40:37;;;;;;;11.85;4.32;;;16.50;59.90;;;;;;5018627;28;20041;-82
2023/05/27 06:43:03;;;;;;;13.43;4.38;;;16.60;60.20;;;;;;5001404;28;20026;-85
2023/05/27 06:45:31;;;;;;;8.75;3.63;;;16.70;60.90;;;;;;5007749;28;20510;-85
2023/05/27 06:47:57;;;;;;;10.20;4.20;;;16.70;60.10;;;;;;5001652;28;20037;-84
2023/05/27 06:50:22;;;;;;;16.42;5.05;;;16.80;59.70;;;;;;5001094;28;20026;-85
2023/05/27 06:52:49;;;;;;;13.27;4.47;;;16.80;59.30;;;;;;5001325;28;20080;-80
2023/05/27 06:55:15;;;;;;;12.27;4.10;;;16.80;59.40;;;;;;5012382;28;20030;-79
2023/05/27 06:57:40;;;;;;;10.05;3.78;;;16.90;59.90;;;;;;5016147;28;20065;-80
2023/05/27 07:00:08;;;;;;;11.15;3.97;;;16.90;59.60;;;;;;5015969;28;20028;-79
2023/05/27 07:02:34;;;;;;;15.18;5.25;;;17.00;59.50;;;;;;5012761;28;20017;-79
2023/05/27 07:05:00;;;;;;;13.05;4.53;;;17.00;59.80;;;;;;4997579;28;20026;-79
2023/05/27 07:07:25;;;;;;;13.02;4.65;;;17.10;59.20;;;;;;5010692;28;20740;-79
2023/05/27 07:09:51;;;;;;;19.58;4.93;;;17.20;58.90;;;;;;5005181;28;20014;-79
2023/05/27 07:12:18;;;;;;;17.73;4.35;;;17.30;58.90;;;;;;5012663;28;20034;-80
2023/05/27 07:14:43;;;;;;;14.07;4.20;;;17.40;59.10;;;;;;4998453;28;20028;-79
2023/05/27 07:17:09;;;;;;;13.15;5.10;;;17.40;58.90;;;;;;5006611;28;20425;-80
2023/05/27 07:19:34;;;;;;;20.42;5.57;;;17.60;58.80;;;;;;4998746;28;20030;-80
2023/05/27 07:22:00;;;;;;;13.82;4.68;;;17.90;58.10;;;;;;5005468;28;20026;-80
2023/05/27 07:24:26;;;;;;;15.32;4.10;;;18.30;57.30;;;;;;4995554;28;20038;-79
2023/05/27 07:26:52;;;;;;;9.10;3.97;;;19.70;55.10;;;;;;4992753;28;20500;-80
2023/05/27 07:29:18;;;;;;;10.40;4.00;;;21.80;51.20;;;;;;4999050;28;20049;-82
2023/05/27 07:31:45;;;;;;;10.50;4.47;;;24.00;46.60;;;;;;5002312;28;20053;-79
2023/05/27 07:34:14;;;;;;;12.18;4.18;;;26.20;42.30;;;;;;5013205;28;20108;-82
2023/05/27 07:36:39;;;;;;;13.40;4.53;;;27.50;39.50;;;;;;5014148;28;20026;-80
2023/05/27 07:39:05;;;;;;;12.48;4.35;;;28.40;37.50;;;;;;5015055;28;20026;-77
2023/05/27 07:41:30;;;;;;;15.02;4.65;;;29.50;35.30;;;;;;4999164;28;20472;-85
2023/05/27 07:44:05;;;;;;;11.80;4.28;;;30.60;34.00;;;;;;4999726;28;20032;-88
2023/05/27 07:46:32;;;;;;;13.20;4.68;;;31.80;32.70;;;;;;5023993;28;20030;-81
2023/05/27 07:48:58;;;;;;;13.48;4.53;;;32.80;30.90;;;;;;5019645;28;20018;-77
2023/05/27 07:51:23;;;;;;;10.75;4.63;;;33.80;29.10;;;;;;5019058;28;20083;-88
2023/05/27 07:53:49;;;;;;;10.27;4.35;;;34.70;28.40;;;;;;5013951;28;20030;-88
2023/05/27 07:56:15;;;;;;;12.60;4.88;;;35.30;27.10;;;;;;5019151;28;20083;-87
2023/05/27 07:58:41;;;;;;;15.45;5.13;;;35.80;26.90;;;;;;4993877;28;20121;-85
2023/05/27 08:01:06;;;;;;;11.35;4.70;;;36.30;25.70;;;;;;5020621;28;20495;-82
2023/05/27 08:03:32;;;;;;;11.38;4.80;;;36.80;25.40;;;;;;5000199;28;20030;-85
2023/05/27 08:05:58;;;;;;;9.52;4.43;;;37.20;25.00;;;;;;4989725;28;20026;-77
2023/05/27 08:08:23;;;;;;;12.18;4.70;;;37.50;24.70;;;;;;4999969;28;20029;-82
2023/05/27 08:10:49;;;;;;;11.35;4.47;;;37.80;24.40;;;;;;5019710;28;20040;-83
2023/05/27 08:13:15;;;;;;;9.63;3.95;;;37.90;23.30;;;;;;5017333;28;20369;-83
2023/05/27 08:15:40;;;;;;;11.20;4.30;;;38.20;23.40;;;;;;5016183;28;20061;-83
2023/05/27 08:18:06;;;;;;;12.52;4.65;;;38.30;23.70;;;;;;5015477;28;20041;-86
2023/05/27 08:20:31;;;;;;;13.88;4.53;;;38.40;23.50;;;;;;4998613;28;20036;-85
2023/05/27 08:22:57;;;;;;;12.32;4.00;;;38.60;23.30;;;;;;5016500;28;20115;-86
2023/05/27 08:25:23;;;;;;;12.65;4.68;;;38.70;23.10;;;;;;5005514;28;20025;-85
2023/05/27 08:27:54;;;;;;;11.73;3.80;;;38.90;23.40;;;;;;4994702;28;20026;-86
2023/05/27 08:30:21;;;;;;;12.38;4.28;;;38.90;22.90;;;;;;4996812;28;20034;-86
2023/05/27 08:32:46;;;;;;;12.55;5.05;;;38.90;23.30;;;;;;4993043;28;20093;-86
2023/05/27 08:35:12;;;;;;;12.77;4.80;;;38.90;23.40;;;;;;4989079;28;20076;-86
2023/05/27 08:37:38;;;;;;;10.10;3.75;;;38.80;23.60;;;;;;5016616;28;20022;-86
2023/05/27 08:40:11;;;;;;;13.52;4.60;;;38.70;23.50;;;;;;5015822;28;20440;-86
2023/05/27 08:42:36;;;;;;;11.93;4.60;;;38.60;23.80;;;;;;4998001;28;20018;-85
2023/05/27 08:45:03;;;;;;;12.98;4.55;;;38.60;23.20;;;;;;5011072;28;20075;-84
2023/05/27 08:47:32;;;;;;;11.18;4.28;;;38.70;23.70;;;;;;5003945;28;20034;-90
2023/05/27 08:50:01;;;;;;;13.70;4.32;;;38.80;24.10;;;;;;4993638;28;20033;-82
2023/05/27 08:52:28;;;;;;;9.95;4.25;;;38.80;23.50;;;;;;5004989;28;20495;-83
2023/05/27 08:54:58;;;;;;;11.93;4.30;;;38.90;23.80;;;;;;4987738;28;20073;-80
2023/05/27 08:57:28;;;;;;;12.45;4.40;;;38.90;23.90;;;;;;5008135;28;20029;-82
2023/05/27 08:59:55;;;;;;;12.80;4.40;;;39.00;23.40;;;;;;4998242;28;20044;-82
2023/05/27 09:02:22;;;;;;;12.55;4.85;;;39.20;23.80;;;;;;5007410;28;20673;-78
2023/05/27 09:04:48;;;;;;;11.02;4.40;;;39.30;23.50;;;;;;5006906;28;20030;-83
2023/05/27 09:07:14;;;;;;;13.20;4.22;;;39.30;23.60;;;;;;5008337;28;20503;-89
2023/05/27 09:09:40;;;;;;;12.32;4.65;;;39.40;23.30;;;;;;5015994;28;20029;-81
2023/05/27 09:12:08;;;;;;;13.40;4.75;;;39.30;23.80;;;;;;5031003;28;20037;-77
2023/05/27 09:14:37;;;;;;;;;;;39.30;24.30;;;;;;5016221;28;20021;-83
2023/05/27 09:17:07;;;;;;;12.27;4.47;;;39.40;24.10;;;;;;5011172;28;19913;-85
2023/05/27 09:19:33;;;;;;;12.90;4.25;;;39.50;24.10;;;;;;5011292;28;20027;-87
2023/05/27 09:21:59;;;;;;;9.45;4.38;;;39.80;24.00;;;;;;4978421;28;20037;-86
2023/05/27 09:24:26;;;;;;;12.07;5.00;;;39.90;23.70;;;;;;4985586;28;20038;-80
2023/05/27 09:26:52;;;;;;;11.57;4.35;;;39.90;23.70;;;;;;5009826;28;20070;-81
2023/05/27 09:29:27;;;;;;;12.20;4.65;;;40.00;23.80;;;;;;5007496;28;20026;-85
2023/05/27 09:31:56;;;;;;;9.70;4.00;;;40.10;23.40;;;;;;4995434;28;20042;-86
2023/05/27 09:34:22;;;;;;;15.20;4.60;;;40.20;22.80;;;;;;4997608;28;20033;-91
2023/05/27 09:36:50;;;;;;;11.32;4.95;;;40.30;23.30;;;;;;5013973;28;20098;-80
2023/05/27 09:39:19;;;;;;;11.85;4.50;;;40.30;23.20;;;;;;5005881;28;20026;-89
2023/05/27 09:41:54;;;;;;;11.23;4.65;;;40.30;23.50;;;;;;4994134;28;20511;-85
2023/05/27 09:44:20;;;;;;;11.80;4.43;;;40.40;23.30;;;;;;5002922;28;20034;-86
2023/05/27 09:46:46;;;;;;;10.85;4.80;;;40.30;23.80;;;;;;5001907;28;20558;-85
2023/05/27 09:49:14;;;;;;;10.65;4.72;;;40.30;23.90;;;;;;5001055;28;20050;-87
2023/05/27 09:51:41;;;;;;;15.40;4.95;;;40.30;23.30;;;;;;5015315;28;20084;-86
2023/05/27 09:54:09;;;;;;;11.02;4.35;;;40.30;23.80;;;;;;5006575;28;20030;-87
2023/05/27 09:56:35;;;;;;;9.70;4.22;;;40.40;23.50;;;;;;4994491;28;20136;-87
2023/05/27 09:59:01;;;;;;;10.77;4.53;;;40.20;23.90;;;;;;5006680;28;20029;-88
2023/05/27 10:01:28;;;;;;;11.73;4.90;;;40.20;23.90;;;;;;5007355;28;20021;-82
2023/05/27 10:03:55;;;;;;;13.48;4.40;;;40.20;23.20;;;;;;5015280;28;20057;-89
2023/05/27 10:06:24;;;;;;;11.35;4.95;;;40.10;23.70;;;;;;4998766;28;20041;-79
2023/05/27 10:08:52;;;;;;;11.65;4.68;;;40.00;24.00;;;;;;5012553;28;20045;-82
2023/05/27 10:11:18;;;;;;;13.00;4.95;;;39.90;24.30;;;;;;5020497;28;20030;-84
2023/05/27 10:13:45;;;;;;;17.02;5.18;;;39.70;24.10;;;;;;4998204;28;20522;-84
2023/05/27 10:16:21;;;;;;;10.50;4.45;;;39.60;24.90;;;;;;5015771;28;20022;-79
2023/05/27 10:18:52;;;;;;;12.45;5.07;;;39.40;24.40;;;;;;4995047;28;20057;-82
2023/05/27 10:21:23;;;;;;;9.63;4.57;;;39.30;24.40;;;;;;5015133;28;20029;-82
2023/05/27 10:24:00;;;;;;;11.57;5.03;;;39.00;24.60;;;;;;5013106;28;20404;-82
2023/05/27 10:26:42;;;;;;;9.95;4.82;;;38.80;25.00;;;;;;5016046;28;20100;-80
2023/05/27 10:29:13;;;;;;;9.95;4.10;;;38.30;25.40;;;;;;5014677;28;20038;-78
2023/05/27 10:31:50;;;;;;;10.73;5.07;;;37.90;25.30;;;;;;5021851;28;20041;-81
2023/05/27 10:34:16;;;;;;;11.07;4.35;;;37.40;26.30;;;;;;5015421;28;20030;-78
2023/05/27 10:36:44;;;;;;;14.13;5.55;;;36.80;26.90;;;;;;5014818;28;20025;-79
2023/05/27 10:39:17;;;;;;;15.63;4.93;;;35.90;27.40;;;;;;5013855;28;20609;-78
2023/05/27 10:41:50;;;;;;;13.60;4.97;;;35.10;28.80;;;;;;4997985;28;20022;-78
2023/05/27 10:44:29;;;;;;;11.82;4.45;;;34.40;29.50;;;;;;5014726;28;20033;-79
2023/05/27 10:47:03;;;;;;;13.27;4.47;;;33.80;30.30;;;;;;4977970;28;20026;-79
2023/05/27 10:49:35;;;;;;;13.48;4.30;;;33.30;31.70;;;;;;4978457;28;20520;-80
2023/05/27 10:52:12;;;;;;;15.93;4.68;;;32.90;31.80;;;;;;5003892;28;20366;-83
2023/05/27 10:54:38;;;;;;;11.20;4.45;;;32.50;32.30;;;;;;4997458;28;20038;-78
2023/05/27 10:57:05;;;;;;;11.57;4.47;;;32.30;33.40;;;;;;4995444;28;20037;-83
2023/05/27 10:59:53;;;;;;;13.27;5.38;;;32.00;33.10;;;;;;5013891;28;20089;-80
2023/05/27 11:02:20;;;;;;;14.93;4.97;;;31.80;34.00;;;;;;5006796;28;20044;-86
2023/05/27 11:04:47;;;;;;;11.75;4.50;;;31.60;34.30;;;;;;5004242;28;20033;-87
2023/05/27 11:07:17;;;;;;;11.43;4.90;;;31.30;34.40;;;;;;5001551;28;20030;-80
2023/05/27 11:09:47;;;;;;;10.57;4.85;;;31.30;35.30;;;;;;5018472;28;20037;-84
2023/05/27 11:12:19;;;;;;;9.85;4.75;;;31.10;34.60;;;;;;5036449;28;20033;-84
2023/05/27 11:14:55;;;;;;;11.05;4.13;;;30.90;35.20;;;;;;4991748;28;20066;-76
2023/05/27 11:17:22;;;;;;;14.98;5.10;;;30.80;34.80;;;;;;5008114;28;20469;-77
2023/05/27 11:19:49;;;;;;;12.05;5.72;;;30.60;35.40;;;;;;5000658;28;20029;-77
2023/05/27 11:22:16;;;;;;;11.80;4.80;;;30.60;35.40;;;;;;5017914;28;20018;-82
2023/05/27 11:24:42;;;;;;;13.65;4.55;;;30.40;36.00;;;;;;5018477;28;20034;-78
2023/05/27 11:27:14;;;;;;;11.27;4.88;;;30.30;36.30;;;;;;4985694;28;20037;-79
2023/05/27 11:29:49;;;;;;;12.50;5.55;;;30.10;35.90;;;;;;5017678;28;20030;-78
2023/05/27 11:32:18;;;;;;;15.55;5.35;;;30.00;37.30;;;;;;5019542;28;20053;-79
2023/05/27 11:34:45;;;;;;;8.75;4.78;;;30.00;36.60;;;;;;5017137;28;20034;-79
2023/05/27 11:37:12;;;;;;;12.02;4.72;;;29.90;36.70;;;;;;5016865;28;20492;-78
2023/05/27 11:39:38;;;;;;;12.27;4.75;;;29.90;36.80;;;;;;5013208;28;20022;-76
2023/05/27 11:42:08;;;;;;;9.38;4.78;;;29.80;36.40;;;;;;4998034;28;20045;-79
2023/05/27 11:44:37;;;;;;;11.25;4.18;;;29.70;37.80;;;;;;5008723;28;20073;-78
2023/05/27 11:47:03;;;;;;;10.83;5.33;;;29.70;38.10;;;;;;5007986;28;20143;-78
2023/05/27 11:49:29;;;;;;;10.82;4.30;;;29.70;37.40;;;;;;5005223;28;20050;-77
2023/05/27 11:51:56;;;;;;;10.85;5.40;;;29.70;37.50;;;;;;4996200;28;20064;-83
2023/05/27 11:54:24;;;;;;;11.15;4.72;;;29.60;37.90;;;;;;4997421;28;20073;-79
2023/05/27 11:56:51;;;;;;;12.73;4.45;;;29.60;37.40;;;;;;4997462;28;20034;-79
2023/05/27 11:59:17;;;;;;;9.50;4.70;;;29.60;37.30;;;;;;5017257;28;20025;-79
2023/05/27 12:01:43;;;;;;;12.02;4.65;;;29.50;36.30;;;;;;4983018;28;20064;-80
2023/05/27 12:04:09;;;;;;;8.02;4.40;;;29.60;37.60;;;;;;5025144;28;20091;-83
2023/05/27 12:06:36;;;;;;;9.98;4.95;;;29.30;35.10;;;;;;5022523;28;20159;-82
2023/05/27 12:09:03;;;;;;;8.88;4.90;;;29.20;36.80;;;;;;5027217;28;20022;-83
2023/05/27 12:11:29;;;;;;;11.27;4.90;;;29.20;38.00;;;;;;5025378;28;20044;-82
2023/05/27 12:13:54;;;;;;;12.23;5.70;;;29.30;37.40;;;;;;5024783;28;20037;-81
2023/05/27 12:16:20;;;;;;;7.32;4.22;;;29.20;36.20;;;;;;5023313;28;20514;-82
2023/05/27 12:18:46;;;;;;;9.35;4.22;;;29.20;38.30;;;;;;5022970;28;20014;-82
2023/05/27 12:21:13;;;;;;;11.27;5.18;;;29.30;37.70;;;;;;5026803;28;20044;-82
2023/05/27 12:23:38;;;;;;;9.88;4.95;;;29.30;37.60;;;;;;5015747;28;20042;-82
2023/05/27 12:26:04;;;;;;;11.00;4.78;;;29.20;36.70;;;;;;5008039;28;20567;-81
2023/05/27 12:28:30;;;;;;;9.90;5.18;;;29.10;38.80;;;;;;5022912;28;20029;-82
2023/05/27 12:30:56;;;;;;;8.35;4.68;;;29.00;37.10;;;;;;5023683;28;20144;-82
2023/05/27 12:33:22;;;;;;;9.18;4.80;;;29.00;38.90;;;;;;5018243;28;20117;-81
2023/05/27 12:35:47;;;;;;;13.30;5.15;;;29.10;37.90;;;;;;5010589;28;20030;-82
2023/05/27 12:38:13;;;;;;;12.80;5.25;;;29.30;38.20;;;;;;5009771;28;20038;-81
2023/05/27 12:40:39;;;;;;;8.90;4.75;;;29.40;37.70;;;;;;5009420;28;20027;-81
2023/05/27 12:43:04;;;;;;;9.48;5.28;;;29.60;37.60;;;;;;5008911;28;20565;-83
2023/05/27 12:45:30;;;;;;;10.15;4.60;;;29.50;37.40;;;;;;5009378;28;20026;-80
2023/05/27 12:47:56;;;;;;;9.38;4.13;;;29.30;37.40;;;;;;4997238;28;20038;-80
2023/05/27 12:50:22;;;;;;;12.75;5.00;;;29.10;37.70;;;;;;4988464;28;20121;-81
2023/05/27 12:52:49;;;;;;;7.70;4.57;;;28.90;36.70;;;;;;5016552;28;20504;-81
2023/05/27 12:55:17;;;;;;;10.48;4.68;;;28.90;37.60;;;;;;5016320;28;20054;-81
2023/05/27 12:57:52;;;;;;;7.75;4.25;;;28.80;36.70;;;;;;5016575;28;20041;-81
2023/05/27 13:00:19;;;;;;;37.00;9.00;;;28.80;37.50;;;;;;4996709;28;20027;-81
2023/05/27 13:02:46;;;;;;;9.10;5.30;;;28.90;39.00;;;;;;4996027;28;20037;-81
2023/05/27 13:05:13;;;;;;;8.02;4.78;;;29.00;37.20;;;;;;4997043;28;20050;-81
2023/05/27 13:07:39;;;;;;;16.10;5.88;;;29.00;37.30;;;;;;4997034;28;20031;-82
2023/05/27 13:10:06;;;;;;;17.10;5.72;;;29.10;38.00;;;;;;5015783;28;20076;-82
2023/05/27 13:12:33;;;;;;;15.80;5.60;;;29.20;38.10;;;;;;5027243;28;20033;-82
2023/05/27 13:15:00;;;;;;;7.57;4.63;;;29.10;37.70;;;;;;5015595;28;20120;-82
2023/05/27 13:17:26;;;;;;;9.05;4.70;;;28.90;37.40;;;;;;5016198;28;20029;-82
2023/05/27 13:19:52;;;;;;;12.05;4.78;;;28.90;37.90;;;;;;4998889;28;20029;-82
2023/05/27 13:22:18;;;;;;;9.45;4.97;;;29.00;37.50;;;;;;5015682;28;20034;-82
2023/05/27 13:24:44;;;;;;;9.15;4.90;;;29.10;38.40;;;;;;5015646;28;20113;-82
2023/05/27 13:27:10;;;;;;;13.70;5.18;;;29.00;37.20;;;;;;5014783;28;20488;-82
2023/05/27 13:29:35;;;;;;;9.85;5.78;;;29.00;38.50;;;;;;5015144;28;20052;-81
2023/05/27 13:32:02;;;;;;;11.75;4.68;;;29.00;37.50;;;;;;5016163;28;20100;-81
2023/05/27 13:34:29;;;;;;;8.27;4.22;;;29.10;37.60;;;;;;5015630;28;20034;-81
2023/05/27 13:36:55;;;;;;;10.02;5.50;;;29.20;36.30;;;;;;5012994;28;20164;-81
2023/05/27 13:39:22;;;;;;;8.73;4.32;;;29.30;36.60;;;;;;5010155;28;20050;-83
2023/05/27 13:41:47;;;;;;;7.78;5.15;;;29.20;37.30;;;;;;5014173;28;20022;-86
2023/05/27 13:44:14;;;;;;;7.78;4.78;;;29.10;38.00;;;;;;4998958;28;20026;-82
2023/05/27 13:46:39;;;;;;;8.60;4.32;;;28.90;37.30;;;;;;4998407;28;20080;-82
2023/05/27 13:49:05;;;;;;;9.90;4.88;;;28.80;37.60;;;;;;5005830;28;20033;-82
2023/05/27 13:51:32;;;;;;;9.30;4.82;;;28.80;38.10;;;;;;4989946;28;20038;-81
2023/05/27 13:53:57;;;;;;;9.35;5.00;;;28.90;38.20;;;;;;4993831;28;20073;-82
2023/05/27 13:56:23;;;;;;;12.25;5.10;;;29.10;37.80;;;;;;5011031;28;20034;-82
2023/05/27 13:58:50;;;;;;;6.30;4.47;;;29.20;37.20;;;;;;5009628;28;20032;-82
2023/05/27 14:01:15;;;;;;;9.68;5.30;;;29.30;37.50;;;;;;5015426;28;20037;-82
2023/05/27 14:03:41;;;;;;;12.65;5.50;;;29.30;36.50;;;;;;5015057;28;20034;-82
2023/05/27 14:06:07;;;;;;;8.70;4.80;;;29.30;36.60;;;;;;4997226;28;20029;-82
2023/05/27 14:08:33;;;;;;;12.60;4.75;;;29.40;37.50;;;;;;5014923;28;20080;-82
2023/05/27 14:10:58;;;;;;;7.70;4.85;;;29.30;37.10;;;;;;4998456;28;20025;-82
2023/05/27 14:13:24;;;;;;;8.80;5.03;;;29.30;37.40;;;;;;5015056;28;20507;-82
2023/05/27 14:15:51;;;;;;;10.63;4.72;;;29.20;37.50;;;;;;4998059;28;20138;-82
2023/05/27 14:18:17;;;;;;;9.30;4.70;;;29.20;37.00;;;;;;5013964;28;20026;-81
2023/05/27 14:20:43;;;;;;;10.77;4.90;;;29.30;37.00;;;;;;5015718;28;20026;-83
2023/05/27 14:23:10;;;;;;;8.98;4.82;;;29.30;37.30;;;;;;5014896;28;20072;-82
2023/05/27 14:25:37;;;;;;;7.15;4.80;;;29.40;37.20;;;;;;4997366;28;20052;-82
2023/05/27 14:28:03;;;;;;;8.68;4.60;;;29.30;35.50;;;;;;4997949;28;20033;-82
2023/05/27 14:30:30;;;;;;;8.48;5.03;;;29.00;36.00;;;;;;5015029;28;20122;-82
2023/05/27 14:33:01;;;;;;;9.15;4.72;;;28.80;37.40;;;;;;4997501;28;20026;-82
2023/05/27 14:35:27;;;;;;;8.63;4.60;;;28.70;37.60;;;;;;4997790;28;20049;-83
2023/05/27 14:37:53;;;;;;;7.80;4.95;;;28.70;37.90;;;;;;5015268;28;20026;-82
2023/05/27 14:40:19;;;;;;;7.85;4.85;;;28.70;37.70;;;;;;5017416;28;20026;-83
2023/05/27 14:42:45;;;;;;;10.88;5.13;;;28.80;38.10;;;;;;5018387;28;20041;-83
2023/05/27 14:45:11;;;;;;;9.10;5.03;;;28.90;36.40;;;;;;5025448;28;20051;-83
2023/05/27 14:47:36;;;;;;;8.30;4.43;;;28.90;37.20;;;;;;5039046;28;20022;-82
2023/05/27 14:50:02;;;;;;;7.10;4.55;;;28.90;36.80;;;;;;5036283;28;20044;-82
2023/05/27 14:52:28;;;;;;;9.90;4.95;;;28.90;37.20;;;;;;5017834;28;20025;-82
2023/05/27 14:54:53;;;;;;;11.57;4.95;;;28.70;36.40;;;;;;5018307;28;20033;-81
2023/05/27 14:57:19;;;;;;;9.68;4.80;;;28.60;36.80;;;;;;5018928;28;20018;-82
2023/05/27 14:59:45;;;;;;;6.75;4.57;;;28.30;37.50;;;;;;4997536;28;20065;-82
2023/05/27 15:02:10;;;;;;;7.32;4.35;;;28.30;37.20;;;;;;5000558;28;20082;-82
2023/05/27 15:04:36;;;;;;;8.85;4.40;;;28.40;37.80;;;;;;5017653;28;20032;-82
2023/05/27 15:07:02;;;;;;;8.18;4.57;;;28.50;37.40;;;;;;5000758;28;20030;-82
2023/05/27 15:09:27;;;;;;;8.55;4.40;;;28.50;37.70;;;;;;5000916;28;20041;-82
2023/05/27 15:11:53;;;;;;;10.60;4.88;;;28.40;38.30;;;;;;5034742;28;20044;-82
2023/05/27 15:14:19;;;;;;;10.23;4.50;;;28.50;39.10;;;;;;5029104;28;20033;-82
2023/05/27 15:16:44;;;;;;;9.10;4.25;;;28.70;38.20;;;;;;5017797;28;20508;-82
2023/05/27 15:19:10;;;;;;;8.95;3.90;;;28.80;38.10;;;;;;5018900;28;20026;-86
2023/05/27 15:21:35;;;;;;;9.10;5.32;;;28.90;37.40;;;;;;5008178;28;20042;-82
2023/05/27 15:24:01;;;;;;;10.05;4.88;;;28.90;37.50;;;;;;5013615;28;20041;-82
2023/05/27 15:26:27;;;;;;;10.30;4.80;;;28.90;37.60;;;;;;5013885;28;20026;-83
2023/05/27 15:28:53;;;;;;;11.20;4.85;;;28.80;37.00;;;;;;5015350;28;20089;-82
2023/05/27 15:31:20;;;;;;;9.80;4.75;;;28.80;37.50;;;;;;5016867;28;20053;-82
2023/05/27 15:33:46;;;;;;;10.20;4.22;;;28.60;37.60;;;;;;5017052;28;20075;-82
2023/05/27 15:36:11;;;;;;;9.23;4.80;;;28.60;37.90;;;;;;4984701;28;20023;-82
2023/05/27 15:38:37;;;;;;;6.53;4.47;;;28.50;37.80;;;;;;5003771;28;20076;-82
2023/05/27 15:41:03;;;;;;;8.82;4.38;;;28.50;38.00;;;;;;5018118;28;20029;-82
2023/05/27 15:43:29;;;;;;;9.35;4.60;;;28.60;37.80;;;;;;5000672;28;20026;-83
2023/05/27 15:45:54;;;;;;;10.73;4.90;;;28.70;37.50;;;;;;5029886;28;20029;-83
2023/05/27 15:48:20;;;;;;;8.38;4.70;;;28.70;37.90;;;;;;5024605;28;20029;-82
2023/05/27 15:50:48;;;;;;;10.02;4.93;;;28.60;38.00;;;;;;5016958;28;20022;-82
2023/05/27 15:53:14;;;;;;;10.38;4.80;;;28.50;38.30;;;;;;5018008;28;20036;-82
2023/05/27 15:55:41;;;;;;;11.88;4.57;;;28.40;38.60;;;;;;5016981;28;20029;-82
2023/05/27 15:58:07;;;;;;;9.30;4.50;;;28.30;38.70;;;;;;5000291;28;20037;-82
2023/05/27 16:00:33;;;;;;;7.22;4.68;;;28.30;39.10;;;;;;5000306;28;20388;-82
2023/05/27 16:02:58;;;;;;;7.68;4.68;;;28.30;39.00;;;;;;5016633;28;20056;-83
2023/05/27 16:05:24;;;;;;;8.73;4.70;;;28.30;39.30;;;;;;5016837;28;20101;-82
2023/05/27 16:07:50;;;;;;;11.20;4.90;;;28.30;39.20;;;;;;5017476;28;20069;-82
2023/05/27 16:10:18;;;;;;;8.30;4.45;;;28.30;39.20;;;;;;5020145;28;20029;-83
2023/05/27 16:12:44;;;;;;;9.02;4.75;;;28.30;38.40;;;;;;5027234;28;20407;-83
2023/05/27 16:15:11;;;;;;;9.68;4.60;;;28.30;38.40;;;;;;4998874;28;20105;-83
2023/05/27 16:17:36;;;;;;;6.40;4.63;;;28.20;38.90;;;;;;4997986;28;20030;-83
2023/05/27 16:20:03;;;;;;;9.13;4.85;;;28.10;39.00;;;;;;4997844;28;20019;-81
2023/05/27 16:22:28;;;;;;;9.98;5.35;;;28.10;39.00;;;;;;5007899;28;20028;-82
2023/05/27 16:24:54;;;;;;;12.20;5.28;;;28.00;39.30;;;;;;5016982;28;20108;-82
2023/05/27 16:27:20;;;;;;;10.05;5.00;;;28.20;39.40;;;;;;4999946;28;20076;-82
2023/05/27 16:29:46;;;;;;;6.65;4.05;;;28.30;38.60;;;;;;5016048;28;20030;-82
2023/05/27 16:32:11;;;;;;;8.20;3.90;;;28.40;38.90;;;;;;4998632;28;20057;-82
2023/05/27 16:34:37;;;;;;;10.40;5.07;;;28.50;38.40;;;;;;5017111;28;20026;-81
2023/05/27 16:37:03;;;;;;;9.35;4.38;;;28.50;37.80;;;;;;5015834;28;20473;-82
2023/05/27 16:39:28;;;;;;;9.52;5.22;;;28.60;38.40;;;;;;5016073;28;20065;-81
2023/05/27 16:41:56;;;;;;;9.70;4.32;;;28.50;38.60;;;;;;5016796;28;20396;-82
2023/05/27 16:44:22;;;;;;;8.38;4.68;;;28.50;39.00;;;;;;4999264;28;20026;-81
2023/05/27 16:46:47;;;;;;;8.32;4.07;;;28.40;39.00;;;;;;5001370;28;20037;-82
2023/05/27 16:49:13;;;;;;;9.80;4.65;;;28.30;38.90;;;;;;5016625;28;20416;-81
2023/05/27 16:51:39;;;;;;;6.78;3.92;;;28.20;39.10;;;;;;5016804;28;20030;-81
2023/05/27 16:54:04;;;;;;;13.30;5.05;;;28.00;39.40;;;;;;5016853;28;20105;-81
2023/05/27 16:56:30;;;;;;;8.48;4.35;;;27.90;39.80;;;;;;5016105;28;20030;-81
2023/05/27 16:58:55;;;;;;;9.85;4.60;;;27.90;40.00;;;;;;5016335;28;20022;-81
2023/05/27 17:01:22;;;;;;;13.68;4.55;;;27.90;39.90;;;;;;4999020;28;20034;-81
2023/05/27 17:03:48;;;;;;;7.05;4.15;;;27.90;39.70;;;;;;5015242;28;20105;-81
2023/05/27 17:06:16;;;;;;;8.65;4.43;;;27.90;39.60;;;;;;5015760;28;20095;-81
2023/05/27 17:08:41;;;;;;;9.48;4.88;;;28.00;39.60;;;;;;5016471;28;20029;-81
2023/05/27 17:11:07;;;;;;;8.38;4.40;;;27.90;39.50;;;;;;5019400;28;20026;-81